Assumption, Nebraska
Current Conditions -  °F | °C
As of 3:53 PM on Tuesday 25 Nov 2014 (Local Time) from KHSI Reporting Station
Overcast Overcast  
Wind Chill: 40°   Ceiling: 7500
Heat Index: 46°   Visibility: 10mi
Dew Point: 20°   Wind: 15mph
Humidity: 35%   Direction: 210°SSW
Pressure: 29.89"   Gusts: NA
Location:  40.5679°N, 98.5535°W
Report Text: KHSI 252153Z AUTO 21013KT 10SM FEW060 OVC075 08/M07 A2989 RMK AO2 SLP138 T00781067
Loading
Personal Weather Stations






























Interactive Weather Map New forecast layout! Learn more

10-Day Weather Forecast

Advertisements
Track Severe Weather on mobile